Tuckahoe, New York
Current Conditions -  °F | °C
As of 12:56 AM on Sunday 23 Nov 2014 (Local Time) from KHPN Reporting Station
Broken Clouds Broken Clouds  
Wind Chill: 39°   Ceiling: 12000
Heat Index: 42°   Visibility: 10mi
Dew Point: 18°   Wind: 5mph
Humidity: 38%   Direction: NA
Pressure: 30.15"   Gusts: NA
Location:  40.95°N, 73.83°W
Report Text: KHPN 230556Z VRB04KT 10SM BKN120 06/M08 A3015 RMK AO2 SLP216 T00561078 10056 20050 58008
Loading
Personal Weather Stations






























Interactive Weather Map New forecast layout! Learn more

10-Day Weather Forecast

Advertisements
Track Severe Weather on mobile